createdAt,value
2022-10-14T00:00:19.635Z,90.15
2022-10-14T00:02:50.167Z,89.61
2022-10-14T00:05:20.467Z,89.18
2022-10-14T00:07:50.608Z,89.15
2022-10-14T00:10:20.908Z,89.47
2022-10-14T00:12:51.589Z,89.18
2022-10-14T00:15:24.477Z,89.58
2022-10-14T00:17:54.694Z,89.30
2022-10-14T00:20:24.851Z,89.13
2022-10-14T00:22:55.241Z,89.30
2022-10-14T00:25:26.550Z,89.40
2022-10-14T00:27:57.145Z,89.52
2022-10-14T00:30:29.996Z,89.32
2022-10-14T00:33:03.059Z,89.32
2022-10-14T00:35:33.772Z,89.06
2022-10-14T00:38:03.993Z,89.19
2022-10-14T00:40:34.211Z,89.58
2022-10-14T00:43:05.763Z,89.81
2022-10-14T00:45:38.529Z,89.85
2022-10-14T00:48:09.651Z,89.29
2022-10-14T00:50:41.843Z,89.70
2022-10-14T00:53:16.115Z,90.18
2022-10-14T00:55:46.488Z,89.42
2022-10-14T00:58:16.739Z,88.91
2022-10-14T01:00:49.604Z,89.57
2022-10-14T01:03:23.670Z,88.60
2022-10-14T01:06:07.684Z,89.09
2022-10-14T01:08:47.683Z,89.56
2022-10-14T01:11:26.163Z,89.09
2022-10-14T01:14:07.737Z,89.44
2022-10-14T01:16:51.868Z,89.08
2022-10-14T01:20:05.725Z,88.49
2022-10-14T01:22:41.691Z,88.79
2022-10-14T01:25:23.139Z,88.96
2022-10-14T01:28:12.543Z,89.58
2022-10-14T01:30:49.906Z,90.19
2022-10-14T01:33:26.074Z,90.47
2022-10-14T01:36:08.959Z,90.71
2022-10-14T01:38:44.581Z,91.04
2022-10-14T01:41:23.482Z,90.30
2022-10-14T01:43:55.675Z,90.16
2022-10-14T01:46:30.041Z,89.99
2022-10-14T01:49:08.859Z,89.92
2022-10-14T01:51:48.511Z,89.72
2022-10-14T01:54:23.966Z,89.53
2022-10-14T01:56:57.325Z,89.48
2022-10-14T01:59:29.394Z,89.05
2022-10-14T02:02:02.616Z,89.29
2022-10-14T02:04:32.874Z,89.14
2022-10-14T02:07:10.031Z,88.82
2022-10-14T02:09:50.117Z,89.23
2022-10-14T02:12:36.053Z,89.62
2022-10-14T02:15:18.124Z,90.10
2022-10-14T02:17:59.609Z,90.15
2022-10-14T02:20:37.553Z,90.28
2022-10-14T02:23:17.245Z,90.62
2022-10-14T02:25:50.674Z,90.47
2022-10-14T02:28:25.616Z,90.17
2022-10-14T02:31:00.908Z,89.99
2022-10-14T02:33:39.591Z,89.73
2022-10-14T02:36:13.718Z,89.70
2022-10-14T02:38:45.404Z,89.79
2022-10-14T02:41:21.347Z,89.63
2022-10-14T02:43:51.918Z,90.99
2022-10-14T02:46:24.361Z,91.13
2022-10-14T02:48:57.166Z,91.63
2022-10-14T02:51:27.374Z,91.70
2022-10-14T02:53:57.681Z,91.65
2022-10-14T02:56:29.780Z,91.92
2022-10-14T02:59:03.486Z,92.31
2022-10-14T03:01:37.599Z,92.40
2022-10-14T03:04:12.400Z,92.60
2022-10-14T03:06:43.170Z,92.86
2022-10-14T03:09:13.216Z,92.91
2022-10-14T03:11:44.517Z,93.05
2022-10-14T03:14:19.354Z,93.15
2022-10-14T03:16:50.048Z,93.16
2022-10-14T03:19:27.576Z,93.27
2022-10-14T03:21:59.707Z,93.91
2022-10-14T03:24:30.494Z,94.31
2022-10-14T03:27:20.009Z,94.38
2022-10-14T03:29:54.496Z,95.15
2022-10-14T03:32:27.227Z,96.05
2022-10-14T03:35:20.008Z,96.90
2022-10-14T03:37:53.700Z,97.28
2022-10-14T03:40:28.042Z,97.34
2022-10-14T03:43:02.232Z,97.53
2022-10-14T03:45:40.217Z,97.52
2022-10-14T03:48:12.277Z,97.15
2022-10-14T03:50:46.188Z,96.88
2022-10-14T03:53:16.500Z,97.04
2022-10-14T03:55:47.487Z,96.99
2022-10-14T03:58:17.742Z,97.17
2022-10-14T04:00:55.457Z,96.88
2022-10-14T04:03:42.934Z,96.79
2022-10-14T04:06:16.389Z,96.95
2022-10-14T04:08:47.438Z,97.12
2022-10-14T04:11:29.535Z,96.89
2022-10-14T04:14:06.300Z,96.75
2022-10-14T04:16:43.990Z,97.14
2022-10-14T04:19:19.213Z,97.02
2022-10-14T04:21:52.303Z,97.79
2022-10-14T04:24:25.291Z,98.28
2022-10-14T04:27:00.545Z,98.67
2022-10-14T04:29:43.122Z,98.73
2022-10-14T04:32:22.178Z,97.88
2022-10-14T04:34:52.586Z,97.57
2022-10-14T04:37:27.376Z,97.48
2022-10-14T04:40:03.881Z,96.82
2022-10-14T04:42:35.780Z,96.94
2022-10-14T04:45:10.724Z,96.85
2022-10-14T04:47:49.439Z,96.78
2022-10-14T04:50:23.181Z,96.78
2022-10-14T04:53:30.180Z,96.99
2022-10-14T04:56:19.360Z,97.06
2022-10-14T04:58:58.551Z,97.17
2022-10-14T05:01:43.003Z,96.89
2022-10-14T05:04:13.440Z,97.06
2022-10-14T05:06:45.644Z,97.84
2022-10-14T05:09:21.061Z,98.41
2022-10-14T05:11:51.307Z,98.26
2022-10-14T05:14:25.991Z,98.77
2022-10-14T05:17:08.727Z,99.85
2022-10-14T05:19:39.351Z,100.00
2022-10-14T05:22:09.640Z,100.00
2022-10-14T05:24:47.589Z,100.00
2022-10-14T05:27:18.120Z,100.00
2022-10-14T05:29:49.038Z,100.00
2022-10-14T05:32:20.220Z,100.00
2022-10-14T05:34:53.422Z,100.00
2022-10-14T05:37:32.860Z,100.00
2022-10-14T05:40:07.036Z,99.64
2022-10-14T05:42:39.584Z,100.00
2022-10-14T05:45:11.396Z,100.00
2022-10-14T05:47:48.415Z,100.00
2022-10-14T05:50:22.012Z,100.00
2022-10-14T05:52:52.670Z,100.00
2022-10-14T05:55:33.061Z,99.83
2022-10-14T05:58:06.121Z,99.44
2022-10-14T06:00:41.280Z,99.27
2022-10-14T06:03:16.440Z,99.27
2022-10-14T06:05:48.330Z,99.06
2022-10-14T06:08:18.505Z,98.66
2022-10-14T06:10:51.361Z,98.75
2022-10-14T06:13:22.085Z,98.85
2022-10-14T06:15:52.243Z,98.53
2022-10-14T06:18:22.481Z,98.39
2022-10-14T06:20:56.366Z,98.17
2022-10-14T06:23:27.326Z,98.11
2022-10-14T06:26:00.204Z,97.17
2022-10-14T06:28:30.460Z,96.47
2022-10-14T06:31:00.733Z,96.46
2022-10-14T06:33:32.725Z,95.87
2022-10-14T06:36:05.654Z,94.60
2022-10-14T06:38:36.236Z,93.87
2022-10-14T06:41:10.370Z,94.12
2022-10-14T06:43:40.573Z,94.86
2022-10-14T06:46:10.814Z,95.34
2022-10-14T06:48:40.880Z,95.46
2022-10-14T06:51:11.958Z,95.88
2022-10-14T06:53:42.087Z,95.91
2022-10-14T06:56:15.282Z,94.31
2022-10-14T06:58:45.450Z,92.52
2022-10-14T07:01:15.763Z,88.62
2022-10-14T07:03:45.971Z,87.58
2022-10-14T07:06:16.132Z,86.52
2022-10-14T07:08:46.243Z,87.01
2022-10-14T07:11:18.958Z,85.77
2022-10-14T07:13:49.085Z,85.91
2022-10-14T07:16:19.195Z,86.29
2022-10-14T07:18:49.336Z,86.58
2022-10-14T07:21:19.466Z,86.17
2022-10-14T07:23:49.561Z,86.88
2022-10-14T07:26:22.319Z,87.70
2022-10-14T07:28:52.651Z,87.47
2022-10-14T07:31:22.865Z,88.29
2022-10-14T07:33:53.036Z,88.33
2022-10-14T07:36:23.224Z,88.25
2022-10-14T07:38:53.754Z,88.45
2022-10-14T07:41:28.223Z,88.20
2022-10-14T07:44:06.543Z,88.57
2022-10-14T07:46:40.988Z,88.39
2022-10-14T07:49:15.648Z,88.33
2022-10-14T07:51:46.930Z,88.08
2022-10-14T07:54:20.341Z,88.42
2022-10-14T07:56:53.723Z,89.76
2022-10-14T07:59:24.397Z,92.11
2022-10-14T08:01:56.868Z,93.94
2022-10-14T08:04:28.219Z,95.49
2022-10-14T08:06:58.425Z,96.53
2022-10-14T08:09:28.608Z,98.29
2022-10-14T08:12:01.468Z,100.00
2022-10-14T08:14:31.757Z,100.00
2022-10-14T08:17:02.067Z,100.00
2022-10-14T08:19:32.447Z,100.00
2022-10-14T08:22:02.599Z,100.00
2022-10-14T08:24:32.720Z,100.00
2022-10-14T08:27:07.246Z,100.00
2022-10-14T08:29:37.421Z,100.00
2022-10-14T08:32:08.130Z,100.00
2022-10-14T08:34:38.334Z,100.00
2022-10-14T08:37:08.620Z,100.00
2022-10-14T08:39:38.816Z,100.00
2022-10-14T08:42:41.056Z,100.00
2022-10-14T08:45:20.220Z,100.00
2022-10-14T08:47:50.687Z,100.00
2022-10-14T08:50:30.113Z,100.00
2022-10-14T08:53:07.386Z,100.00
2022-10-14T08:55:42.379Z,100.00
2022-10-14T08:58:22.426Z,100.00
2022-10-14T09:00:55.826Z,100.00
2022-10-14T09:03:33.522Z,100.00
2022-10-14T09:06:06.579Z,100.00
2022-10-14T09:08:42.346Z,100.00
2022-10-14T09:11:18.186Z,100.00
2022-10-14T09:13:53.824Z,100.00
2022-10-14T09:16:27.612Z,100.00
2022-10-14T09:19:00.747Z,100.00
2022-10-14T09:21:52.961Z,100.00
2022-10-14T09:24:26.996Z,100.00
2022-10-14T09:27:00.633Z,100.00
2022-10-14T09:29:40.379Z,97.24
2022-10-14T09:32:15.257Z,94.52
2022-10-14T09:34:50.945Z,93.94
2022-10-14T09:37:30.898Z,91.81
2022-10-14T09:40:07.086Z,92.12
2022-10-14T09:42:49.045Z,89.42
2022-10-14T09:45:24.653Z,87.48
2022-10-14T09:47:59.898Z,86.05
2022-10-14T09:50:38.472Z,83.12
2022-10-14T09:53:17.935Z,82.12
2022-10-14T09:55:52.863Z,80.20
2022-10-14T09:58:34.969Z,79.58
2022-10-14T10:01:14.577Z,78.86
2022-10-14T10:03:46.073Z,77.98
2022-10-14T10:06:20.382Z,78.24
2022-10-14T10:09:01.351Z,78.23
2022-10-14T10:11:37.465Z,78.87
2022-10-14T10:14:21.337Z,77.93
2022-10-14T10:17:14.788Z,77.46
2022-10-14T10:19:46.525Z,78.12
2022-10-14T10:22:26.684Z,79.10
2022-10-14T10:25:36.517Z,79.92
2022-10-14T10:28:21.721Z,82.94
2022-10-14T10:31:12.748Z,85.07
2022-10-14T10:33:50.529Z,85.04
2022-10-14T10:36:29.175Z,84.59
2022-10-14T10:39:02.804Z,85.08
2022-10-14T10:42:01.433Z,85.34
2022-10-14T10:44:54.173Z,84.90
2022-10-14T10:47:36.010Z,83.99
2022-10-14T10:50:32.307Z,83.81
2022-10-14T10:53:42.572Z,83.24
2022-10-14T10:56:22.758Z,82.91
2022-10-14T10:59:14.594Z,80.02
2022-10-14T11:01:53.530Z,77.19
2022-10-14T11:04:34.002Z,76.41
2022-10-14T11:07:30.959Z,74.30
2022-10-14T11:10:26.033Z,72.55
2022-10-14T11:13:04.333Z,73.65
2022-10-14T11:15:48.357Z,73.40
2022-10-14T11:18:34.038Z,73.85
2022-10-14T11:21:15.278Z,74.12
2022-10-14T11:24:06.420Z,74.44
2022-10-14T11:26:56.523Z,73.58
2022-10-14T11:29:49.320Z,71.86
2022-10-14T11:32:27.180Z,70.25
2022-10-14T11:35:13.891Z,68.11
2022-10-14T11:38:03.271Z,66.18
2022-10-14T11:40:44.315Z,64.39
2022-10-14T11:43:26.777Z,62.92
2022-10-14T11:46:00.792Z,62.07
2022-10-14T11:48:38.831Z,61.05
2022-10-14T11:51:17.869Z,61.50
2022-10-14T11:54:01.637Z,60.26
2022-10-14T11:56:44.201Z,59.18
2022-10-14T11:59:40.219Z,57.89
2022-10-14T12:02:26.692Z,57.01
2022-10-14T12:05:05.810Z,57.86
2022-10-14T12:07:44.888Z,59.33
2022-10-14T12:10:27.539Z,59.43
2022-10-14T12:13:02.392Z,59.38
2022-10-14T12:15:32.865Z,57.19
2022-10-14T12:18:04.071Z,58.66
2022-10-14T12:20:44.706Z,59.29
2022-10-14T12:23:31.053Z,59.20
2022-10-14T12:26:09.476Z,59.62
2022-10-14T12:28:43.363Z,58.91
2022-10-14T12:31:25.999Z,59.39
2022-10-14T12:34:35.632Z,58.58
2022-10-14T12:37:54.467Z,57.53
2022-10-14T12:40:36.700Z,58.03
2022-10-14T12:43:26.413Z,59.28
2022-10-14T12:46:18.345Z,58.76
2022-10-14T12:48:52.152Z,57.99
2022-10-14T12:51:27.463Z,58.84
2022-10-14T12:54:08.376Z,59.01
2022-10-14T12:56:43.210Z,59.09
2022-10-14T12:59:26.599Z,60.39
2022-10-14T13:02:06.855Z,60.56
2022-10-14T13:04:37.380Z,61.42
2022-10-14T13:07:40.053Z,61.50
2022-10-14T13:10:48.084Z,61.41
2022-10-14T13:14:02.197Z,61.90
2022-10-14T13:17:29.150Z,62.34
2022-10-14T13:19:59.584Z,55.61
2022-10-14T13:22:45.683Z,51.40
2022-10-14T13:25:20.531Z,45.90
2022-10-14T13:28:24.209Z,40.44
2022-10-14T13:31:06.718Z,38.55
2022-10-14T13:33:46.352Z,41.95
2022-10-14T13:36:21.181Z,43.91
2022-10-14T13:38:58.486Z,44.87
2022-10-14T13:41:31.490Z,47.17
2022-10-14T13:44:03.466Z,48.31
2022-10-14T13:46:39.807Z,48.83
2022-10-14T13:49:20.491Z,50.29
2022-10-14T13:51:54.862Z,51.15
2022-10-14T13:54:27.960Z,51.72
2022-10-14T13:57:47.941Z,53.14
2022-10-14T14:02:53.362Z,55.10
2022-10-14T14:05:35.446Z,53.89
2022-10-14T14:08:36.853Z,53.01
2022-10-14T14:11:16.216Z,53.29
2022-10-14T14:13:59.912Z,52.68
2022-10-14T14:16:35.825Z,52.56
2022-10-14T14:19:09.315Z,52.43
2022-10-14T14:21:42.854Z,52.86
2022-10-14T14:24:29.527Z,52.83
2022-10-14T14:26:59.943Z,52.56
2022-10-14T14:29:34.379Z,52.46
2022-10-14T14:32:08.466Z,52.24
2022-10-14T14:34:40.959Z,52.24
2022-10-14T14:40:19.647Z,54.05
2022-10-14T14:42:53.523Z,54.56
2022-10-14T14:45:27.005Z,55.87
2022-10-14T14:48:00.342Z,57.49
2022-10-14T14:50:34.856Z,58.88
2022-10-14T14:53:22.818Z,60.22
2022-10-14T14:56:07.876Z,60.18
2022-10-14T14:58:49.412Z,60.54
2022-10-14T15:01:24.830Z,60.46
2022-10-14T15:04:11.993Z,60.15
2022-10-14T15:06:51.616Z,59.44
2022-10-14T15:09:36.612Z,59.30
2022-10-14T15:12:10.975Z,60.97
2022-10-14T15:14:48.608Z,62.02
2022-10-14T15:17:32.195Z,62.48
2022-10-14T15:20:29.888Z,62.50
2022-10-14T15:23:00.859Z,62.76
2022-10-14T15:25:35.794Z,63.63
2022-10-14T15:28:06.499Z,63.30
2022-10-14T15:30:54.073Z,63.41
2022-10-14T15:33:26.758Z,63.36
2022-10-14T15:36:00.012Z,63.44
2022-10-14T15:41:23.981Z,64.73
2022-10-14T15:43:54.238Z,65.27
2022-10-14T15:46:37.868Z,65.48
2022-10-14T15:49:25.764Z,65.98
2022-10-14T15:51:55.927Z,66.84
2022-10-14T15:54:27.767Z,67.20
2022-10-14T15:57:01.393Z,67.71
2022-10-14T15:59:31.614Z,68.11
2022-10-14T16:02:01.925Z,68.42
2022-10-14T16:04:33.622Z,68.84
2022-10-14T16:07:04.001Z,69.53
2022-10-14T16:09:34.245Z,70.09
2022-10-14T16:12:08.466Z,70.63
2022-10-14T16:14:38.698Z,70.58
2022-10-14T16:17:09.120Z,71.44
2022-10-14T16:19:39.397Z,72.04
2022-10-14T16:22:10.373Z,72.16
2022-10-14T16:24:41.638Z,72.88
2022-10-14T16:27:14.457Z,73.08
2022-10-14T16:29:44.781Z,73.87
2022-10-14T16:32:16.802Z,73.92
2022-10-14T16:34:46.972Z,73.95
2022-10-14T16:37:17.171Z,74.24
2022-10-14T16:39:48.172Z,74.42
2022-10-14T16:42:21.948Z,75.32
2022-10-14T16:44:52.142Z,75.46
2022-10-14T16:47:23.859Z,75.37
2022-10-14T16:49:57.189Z,75.30
2022-10-14T16:52:27.342Z,75.28
2022-10-14T16:54:57.541Z,75.03
2022-10-14T16:57:34.708Z,74.93
2022-10-14T17:00:05.578Z,75.35
2022-10-14T17:02:35.500Z,75.74
2022-10-14T17:05:05.657Z,75.92
2022-10-14T17:07:36.607Z,76.52
2022-10-14T17:10:08.013Z,76.28
2022-10-14T17:12:42.452Z,76.07
2022-10-14T17:15:14.118Z,76.02
2022-10-14T17:17:44.253Z,76.20
2022-10-14T17:20:14.426Z,76.08
2022-10-14T17:22:44.763Z,75.94
2022-10-14T17:25:15.390Z,75.84
2022-10-14T17:27:48.171Z,75.96
2022-10-14T17:30:18.695Z,75.89
2022-10-14T17:32:49.595Z,75.71
2022-10-14T17:35:19.863Z,75.72
2022-10-14T17:37:50.171Z,75.62
2022-10-14T17:40:20.544Z,75.82
2022-10-14T17:42:53.336Z,76.20
2022-10-14T17:45:25.439Z,76.71
2022-10-14T17:47:57.238Z,77.17
2022-10-14T17:50:28.832Z,77.02
2022-10-14T17:52:59.724Z,76.75
2022-10-14T17:55:29.590Z,76.84
2022-10-14T17:58:02.369Z,77.29
2022-10-14T18:00:32.535Z,77.18
2022-10-14T18:03:02.737Z,77.11
2022-10-14T18:05:32.864Z,77.32
2022-10-14T18:08:03.432Z,77.23
2022-10-14T18:10:33.836Z,77.26
2022-10-14T18:13:07.026Z,77.54
2022-10-14T18:15:37.267Z,77.57
2022-10-14T18:18:08.466Z,77.59
2022-10-14T18:20:39.726Z,77.60
2022-10-14T18:23:11.489Z,78.12
2022-10-14T18:25:41.783Z,78.05
2022-10-14T18:28:14.556Z,78.32
2022-10-14T18:30:44.760Z,78.41
2022-10-14T18:33:14.977Z,78.63
2022-10-14T18:35:48.579Z,78.81
2022-10-14T18:38:19.062Z,79.36
2022-10-14T18:40:49.372Z,79.21
2022-10-14T18:43:22.340Z,79.84
2022-10-14T18:45:52.747Z,80.09
2022-10-14T18:48:23.032Z,80.67
2022-10-14T18:51:00.357Z,81.64
2022-10-14T18:53:32.326Z,82.38
2022-10-14T18:56:08.766Z,82.40
2022-10-14T18:58:42.518Z,82.24
2022-10-14T19:01:15.357Z,82.47
2022-10-14T19:03:48.842Z,82.71
2022-10-14T19:06:19.195Z,82.97
2022-10-14T19:08:49.647Z,82.66
2022-10-14T19:11:22.342Z,82.63
2022-10-14T19:13:58.066Z,82.47
2022-10-14T19:16:31.037Z,82.38
2022-10-14T19:19:04.127Z,82.32
2022-10-14T19:21:34.686Z,82.22
2022-10-14T19:24:05.885Z,82.00
2022-10-14T19:26:40.002Z,81.92
2022-10-14T19:29:16.509Z,81.53
2022-10-14T19:31:47.309Z,81.14
2022-10-14T19:34:19.172Z,81.10
2022-10-14T19:36:49.413Z,81.20
2022-10-14T19:39:20.150Z,81.03
2022-10-14T19:41:50.428Z,81.16
2022-10-14T19:44:23.301Z,81.10
2022-10-14T19:46:53.461Z,81.42
2022-10-14T19:49:23.617Z,81.54
2022-10-14T19:51:54.021Z,81.12
2022-10-14T19:54:24.219Z,81.46
2022-10-14T19:56:54.377Z,82.14
2022-10-14T19:59:27.232Z,82.21
2022-10-14T20:01:57.400Z,81.51
2022-10-14T20:04:27.911Z,81.86
2022-10-14T20:06:58.124Z,82.39
2022-10-14T20:09:28.995Z,82.41
2022-10-14T20:11:59.134Z,82.32
2022-10-14T20:14:32.004Z,82.63
2022-10-14T20:17:02.144Z,83.01
2022-10-14T20:19:32.410Z,82.71
2022-10-14T20:22:02.746Z,82.91
2022-10-14T20:24:32.955Z,83.44
2022-10-14T20:27:04.600Z,83.85
2022-10-14T20:29:41.341Z,83.97
2022-10-14T20:32:12.182Z,84.02
2022-10-14T20:34:42.105Z,84.02
2022-10-14T20:37:12.301Z,84.02
2022-10-14T20:39:42.511Z,83.77
2022-10-14T20:42:12.619Z,84.41
2022-10-14T20:44:45.314Z,84.85
2022-10-14T20:47:15.515Z,84.78
2022-10-14T20:49:45.790Z,85.10
2022-10-14T20:52:15.920Z,85.14
2022-10-14T20:54:46.088Z,85.50
2022-10-14T20:57:16.455Z,85.29
2022-10-14T20:59:49.253Z,85.76
2022-10-14T21:02:22.581Z,86.03
2022-10-14T21:04:54.560Z,86.50
2022-10-14T21:07:25.197Z,87.90
2022-10-14T21:09:55.653Z,88.90
2022-10-14T21:12:26.334Z,90.29
2022-10-14T21:14:59.073Z,90.87
2022-10-14T21:17:29.230Z,91.18
2022-10-14T21:19:59.376Z,92.77
2022-10-14T21:22:29.580Z,93.62
2022-10-14T21:24:59.916Z,94.05
2022-10-14T21:27:30.030Z,95.38
2022-10-14T21:30:02.790Z,96.56
2022-10-14T21:32:32.974Z,97.49
2022-10-14T21:35:03.188Z,98.00
2022-10-14T21:37:33.285Z,98.77
2022-10-14T21:40:03.369Z,100.00
2022-10-14T21:42:33.450Z,100.00
2022-10-14T21:45:06.421Z,100.00
2022-10-14T21:47:36.578Z,100.00
2022-10-14T21:50:07.339Z,100.00
2022-10-14T21:52:37.828Z,100.00
2022-10-14T21:55:09.596Z,100.00
2022-10-14T21:57:39.723Z,100.00
2022-10-14T22:00:14.827Z,100.00
2022-10-14T22:02:45.037Z,100.00
2022-10-14T22:05:15.267Z,100.00
2022-10-14T22:07:45.349Z,100.00
2022-10-14T22:10:27.810Z,100.00
2022-10-14T22:12:59.531Z,100.00
2022-10-14T22:15:32.471Z,100.00
2022-10-14T22:18:02.705Z,100.00
2022-10-14T22:20:32.935Z,100.00
2022-10-14T22:23:03.236Z,100.00
2022-10-14T22:25:35.889Z,100.00
2022-10-14T22:28:06.985Z,100.00
2022-10-14T22:30:40.240Z,100.00
2022-10-14T22:33:10.551Z,100.00
2022-10-14T22:35:40.834Z,100.00
2022-10-14T22:38:11.338Z,100.00
2022-10-14T22:40:41.559Z,100.00
2022-10-14T22:43:11.790Z,100.00
2022-10-14T22:45:47.624Z,100.00
2022-10-14T22:48:17.810Z,100.00
2022-10-14T22:50:47.977Z,100.00
2022-10-14T22:53:18.231Z,100.00
2022-10-14T22:55:54.355Z,100.00
2022-10-14T22:58:24.889Z,100.00
2022-10-14T23:00:57.818Z,100.00
2022-10-14T23:03:28.988Z,100.00
2022-10-14T23:06:03.970Z,100.00
2022-10-14T23:08:35.377Z,100.00
2022-10-14T23:11:07.098Z,100.00
2022-10-14T23:13:37.787Z,100.00
2022-10-14T23:16:14.121Z,100.00
2022-10-14T23:18:45.768Z,100.00
2022-10-14T23:21:19.382Z,100.00
2022-10-14T23:23:51.634Z,100.00
2022-10-14T23:26:26.155Z,100.00
2022-10-14T23:28:58.170Z,100.00
2022-10-14T23:31:33.304Z,100.00
2022-10-14T23:34:05.778Z,100.00
2022-10-14T23:36:36.488Z,100.00
2022-10-14T23:39:07.941Z,100.00
2022-10-14T23:41:38.454Z,100.00
2022-10-14T23:44:08.644Z,100.00
2022-10-14T23:46:41.664Z,100.00
2022-10-14T23:49:25.653Z,100.00
2022-10-14T23:51:56.882Z,100.00
2022-10-14T23:54:27.221Z,100.00
2022-10-14T23:56:57.386Z,100.00
2022-10-14T23:59:27.460Z,100.00
